| time (UTC) | temp F | wind direction | speed knots | gust knots | rain 1hr in | rain 24hr in | rain mn in | humidity % | barometer mb |
| 20260901061544 | 69 | 149 | 0.0 | 0.9 | 0.00 | 0.00 | 0.00 | 75 | 1013.8 |
| 20260901060040 | 69 | 149 | 0.0 | 0.0 | 0.00 | 0.00 | 0.00 | 74 | 1013.8 |
| 20260901054540 | 70 | 149 | 0.0 | 1.7 | 0.00 | 0.00 | 0.00 | 73 | 1013.6 |
| 20260901053041 | 70 | 149 | 0.0 | 0.0 | 0.00 | 0.00 | 0.00 | 72 | 1013.5 |
| 20260901051540 | 71 | 149 | 0.0 | 0.0 | 0.00 | 0.00 | 0.00 | 71 | 1013.6 |
| 20260901050038 | 71 | 149 | 0.0 | 0.0 | 0.00 | 0.00 | 0.00 | 71 | 1013.4 |
| 20260901044537 | 72 | 149 | 0.0 | 0.0 | 0.00 | 0.00 | 0.00 | 70 | 1013.5 |
| 20260901043046 | 73 | 197 | 0.0 | 0.0 | 0.00 | 0.00 | 0.00 | 70 | 1013.4 |
| 20260901041536 | 73 | 215 | 0.0 | 0.0 | 0.00 | 0.00 | 0.00 | 69 | 1013.4 |
| 20260901040035 | 74 | 197 | 0.0 | 0.9 | 0.00 | 0.00 | 0.00 | 69 | 1013.6 |
| 20260901034545 | 74 | 222 | 0.0 | 0.9 | 0.00 | 0.00 | 0.00 | 68 | 1013.4 |
| 20260901033048 | 74 | 213 | 0.0 | 0.9 | 0.00 | 0.00 | 0.00 | 67 | 1013.1 |
| 20260901031558 | 75 | 213 | 0.0 | 1.7 | 0.00 | 0.00 | 0.00 | 65 | 1013.0 |
| 20260901030036 | 76 | 236 | 0.0 | 4.3 | 0.00 | 0.00 | 0.00 | 63 | 1012.8 |
| 20260901024531 | 77 | 210 | 0.9 | 4.3 | 0.00 | 0.00 | 0.00 | 60 | 1012.6 |
| 20260901023031 | 78 | 237 | 1.7 | 4.3 | 0.00 | 0.00 | 0.00 | 58 | 1012.4 |
| 20260901021528 | 79 | 172 | 0.9 | 4.3 | 0.00 | 0.00 | 0.00 | 55 | 1012.1 |
| 20260901020033 | 80 | 260 | 1.7 | 6.1 | 0.00 | 0.00 | 0.00 | 53 | 1012.0 |
| 20260901014527 | 81 | 196 | 0.9 | 7.0 | 0.00 | 0.00 | 0.00 | 51 | 1011.9 |
| 20260901013034 | 82 | 237 | 1.7 | 5.2 | 0.00 | 0.00 | 0.00 | 49 | 1011.8 |
| 20260901011524 | 83 | 191 | 0.9 | 7.0 | 0.00 | 0.00 | 0.00 | 48 | 1011.8 |
| 20260901010030 | 84 | 205 | 1.7 | 6.1 | 0.00 | 0.00 | 0.00 | 47 | 1011.8 |
| 20260901004524 | 85 | 207 | 2.6 | 6.1 | 0.00 | 0.00 | 0.00 | 46 | 1011.7 |
| 20260901003020 | 86 | 251 | 1.7 | 7.0 | 0.00 | 0.00 | 0.00 | 46 | 1011.7 |
| 20260901001625 | 87 | 172 | 1.7 | 7.0 | 0.00 | 0.00 | 0.00 | 46 | 1011.7 |
| 20260901000016 | 87 | 256 | 2.6 | 7.8 | 0.00 | 0.00 | 0.00 | 45 | 1011.8 |
| 20260831234516 | 87 | 95 | 1.7 | 9.6 | 0.00 | 0.00 | 0.00 | 45 | 1011.8 |
| 20260831233015 | 87 | 189 | 3.5 | 10.4 | 0.00 | 0.00 | 0.00 | 44 | 1011.8 |
| 20260831231513 | 88 | 176 | 3.5 | 9.6 | 0.00 | 0.00 | 0.00 | 42 | 1011.9 |
| 20260831230013 | 89 | 242 | 4.3 | 8.7 | 0.00 | 0.00 | 0.00 | 41 | 1012.0 |
| 20260831224513 | 89 | 267 | 5.2 | 9.6 | 0.00 | 0.00 | 0.00 | 40 | 1012.2 |
| 20260831223012 | 89 | 253 | 3.5 | 11.3 | 0.00 | 0.00 | 0.00 | 38 | 1012.1 |
| 20260831221511 | 90 | 122 | 6.1 | 11.3 | 0.00 | 0.00 | 0.00 | 37 | 1012.3 |
| 20260831220012 | 90 | 243 | 5.2 | 11.3 | 0.00 | 0.00 | 0.00 | 38 | 1012.3 |
| 20260831214511 | 90 | 178 | 4.3 | 9.6 | 0.00 | 0.00 | 0.00 | 39 | 1012.3 |
| 20260831213013 | 90 | 242 | 5.2 | 10.4 | 0.00 | 0.00 | 0.00 | 38 | 1012.2 |
| 20260831211509 | 91 | 215 | 2.6 | 9.6 | 0.00 | 0.00 | 0.00 | 38 | 1012.3 |
| 20260831210008 | 90 | 169 | 4.3 | 10.4 | 0.00 | 0.00 | 0.00 | 39 | 1012.7 |
| 20260831204508 | 91 | 190 | 3.5 | 8.7 | 0.00 | 0.00 | 0.00 | 39 | 1012.6 |
| 20260831203007 | 91 | 203 | 0.9 | 7.0 | 0.00 | 0.00 | 0.00 | 39 | 1012.6 |
| 20260831201505 | 90 | 176 | 5.2 | 12.2 | 0.00 | 0.00 | 0.00 | 39 | 1012.7 |
| 20260831200004 | 90 | 184 | 2.6 | 7.8 | 0.00 | 0.00 | 0.00 | 38 | 1012.7 |
| 20260831194504 | 91 | 163 | 1.7 | 7.0 | 0.00 | 0.00 | 0.00 | 37 | 1012.8 |
| 20260831193001 | 90 | 174 | 5.2 | 10.4 | 0.00 | 0.00 | 0.00 | 39 | 1013.0 |
| 20260831191604 | 90 | 180 | 3.5 | 7.8 | 0.00 | 0.00 | 0.00 | 41 | 1013.1 |
| 20260831190107 | 90 | 167 | 2.6 | 8.7 | 0.00 | 0.00 | 0.00 | 41 | 1013.0 |
| 20260831184557 | 88 | 251 | 0.9 | 7.8 | 0.00 | 0.00 | 0.00 | 41 | 1013.2 |
| 20260831183050 | 88 | 132 | 3.5 | 7.8 | 0.00 | 0.00 | 0.00 | 44 | 1013.2 |
| 20260831181553 | 87 | 97 | 3.5 | 7.8 | 0.00 | 0.00 | 0.00 | 46 | 1013.3 |
| 20260831180043 | 86 | 245 | 3.5 | 7.0 | 0.00 | 0.00 | 0.00 | 47 | 1013.2 |
| 20260831174541 | 85 | 258 | 1.7 | 6.1 | 0.00 | 0.00 | 0.00 | 51 | 1013.3 |
| 20260831173036 | 84 | 271 | 0.9 | 5.2 | 0.00 | 0.00 | 0.00 | 53 | 1013.3 |
| 20260831171536 | 83 | 192 | 0.9 | 7.0 | 0.00 | 0.00 | 0.00 | 56 | 1013.2 |
| 20260831170028 | 81 | 164 | 0.0 | 7.0 | 0.00 | 0.00 | 0.00 | 59 | 1013.3 |
| 20260831164536 | 79 | 111 | 0.0 | 5.2 | 0.00 | 0.00 | 0.00 | 63 | 1013.2 |
| 20260831163019 | 78 | 226 | 1.7 | 5.2 | 0.00 | 0.00 | 0.00 | 65 | 1013.2 |
| 20260831161515 | 77 | 169 | 0.9 | 4.3 | 0.00 | 0.00 | 0.00 | 68 | 1013.3 |
| 20260831160010 | 76 | 186 | 0.9 | 4.3 | 0.00 | 0.00 | 0.00 | 71 | 1013.3 |
| 20260831154507 | 75 | 170 | 0.9 | 4.3 | 0.00 | 0.00 | 0.00 | 74 | 1013.3 |
| 20260831153001 | 74 | 254 | 0.0 | 1.7 | 0.00 | 0.00 | 0.00 | 77 | 1013.3 |
| 20260831151558 | 72 | 38 | 0.0 | 3.5 | 0.00 | 0.00 | 0.00 | 79 | 1013.2 |
| 20260831150105 | 71 | 62 | 0.0 | 1.7 | 0.00 | 0.00 | 0.00 | 83 | 1013.1 |
| 20260831144550 | 70 | 359 | 0.0 | 3.5 | 0.00 | 0.00 | 0.00 | 84 | 1013.0 |
| 20260831143044 | 70 | 5 | 0.0 | 2.6 | 0.00 | 0.00 | 0.00 | 84 | 1013.0 |
| 20260831141539 | 69 | 5 | 1.7 | 4.3 | 0.00 | 0.00 | 0.00 | 85 | 1012.8 |
| 20260831140037 | 69 | 38 | 0.9 | 4.3 | 0.00 | 0.00 | 0.00 | 84 | 1012.6 |
| 20260831134533 | 69 | 49 | 0.9 | 4.3 | 0.00 | 0.00 | 0.00 | 84 | 1012.4 |
| 20260831133035 | 70 | 23 | 0.9 | 3.5 | 0.00 | 0.00 | 0.00 | 85 | 1012.3 |
| 20260831131529 | 70 | 336 | 0.9 | 4.3 | 0.00 | 0.00 | 0.00 | 85 | 1012.0 |
| 20260831130027 | 70 | 20 | 0.0 | 3.5 | 0.00 | 0.00 | 0.00 | 85 | 1012.0 |
| 20260831124547 | 70 | 88 | 0.0 | 1.7 | 0.00 | 0.00 | 0.00 | 85 | 1012.0 |
| 20260831123027 | 70 | 80 | 0.0 | 2.6 | 0.00 | 0.00 | 0.00 | 86 | 1012.1 |
| 20260831121526 | 70 | 78 | 0.0 | 3.5 | 0.00 | 0.00 | 0.00 | 86 | 1012.0 |
| 20260831120029 | 70 | 70 | 0.0 | 3.5 | 0.00 | 0.00 | 0.00 | 86 | 1011.9 |
| 20260831114537 | 70 | 101 | 3.5 | 5.2 | 0.00 | 0.00 | 0.00 | 86 | 1012.0 |
| 20260831113024 | 70 | 77 | 0.0 | 4.3 | 0.00 | 0.00 | 0.00 | 86 | 1011.9 |
| 20260831111522 | 70 | 82 | 0.9 | 3.5 | 0.00 | 0.00 | 0.00 | 87 | 1012.0 |
| 20260831110022 | 70 | 68 | 0.0 | 2.6 | 0.00 | 0.00 | 0.00 | 87 | 1012.0 |
| 20260831104532 | 70 | 78 | 0.0 | 1.7 | 0.00 | 0.00 | 0.00 | 87 | 1012.1 |
| 20260831103022 | 70 | 103 | 0.9 | 4.3 | 0.00 | 0.00 | 0.00 | 87 | 1012.2 |
| 20260831101520 | 70 | 95 | 0.0 | 4.3 | 0.00 | 0.00 | 0.00 | 87 | 1012.0 |
| 20260831100019 | 70 | 149 | 0.9 | 4.3 | 0.00 | 0.00 | 0.00 | 87 | 1012.1 |
| 20260831094518 | 69 | 101 | 0.0 | 0.9 | 0.00 | 0.00 | 0.00 | 87 | 1012.1 |
| 20260831093029 | 69 | 149 | 0.0 | 0.0 | 0.00 | 0.00 | 0.00 | 86 | 1012.0 |
| 20260831091515 | 68 | 149 | 0.0 | 0.0 | 0.00 | 0.00 | 0.00 | 85 | 1012.1 |
| 20260831090015 | 68 | 149 | 0.0 | 0.0 | 0.00 | 0.00 | 0.00 | 84 | 1012.1 |
| 20260831084513 | 69 | 149 | 0.0 | 0.0 | 0.00 | 0.00 | 0.00 | 84 | 1012.1 |
| 20260831083017 | 69 | 149 | 0.0 | 0.0 | 0.00 | 0.00 | 0.00 | 83 | 1012.2 |
| 20260831081508 | 69 | 149 | 0.0 | 0.0 | 0.00 | 0.00 | 0.00 | 83 | 1012.1 |
| 20260831080005 | 69 | 149 | 0.0 | 0.0 | 0.00 | 0.00 | 0.00 | 83 | 1012.2 |
| 20260831074503 | 70 | 149 | 0.0 | 0.0 | 0.00 | 0.00 | 0.00 | 83 | 1012.1 |
| 20260831073101 | 70 | 149 | 0.0 | 0.0 | 0.00 | 0.00 | 0.00 | 82 | 1012.0 |
| 20260831071555 | 70 | 149 | 0.0 | 0.0 | 0.00 | 0.00 | 0.00 | 82 | 1012.1 |
| 20260831070056 | 71 | 149 | 0.0 | 0.0 | 0.00 | 0.00 | 0.00 | 82 | 1012.2 |
| 20260831064553 | 71 | 149 | 0.0 | 0.0 | 0.00 | 0.00 | 0.00 | 82 | 1012.4 |
| 20260831063052 | 71 | 149 | 0.0 | 0.0 | 0.00 | 0.00 | 0.00 | 82 | 1012.1 |